sensor_id;sensor_type;location;lat;lon;timestamp;P1;durP1;ratioP1;P2;durP2;ratioP2
75220;SDS011;63802;53.232;6.570;2023-07-08T00:00:20;9.55;;;3.35;;
75220;SDS011;63802;53.232;6.570;2023-07-08T00:02:47;6.80;;;3.35;;
75220;SDS011;63802;53.232;6.570;2023-07-08T00:05:15;6.47;;;3.67;;
75220;SDS011;63802;53.232;6.570;2023-07-08T00:12:48;6.43;;;3.30;;
75220;SDS011;63802;53.232;6.570;2023-07-08T00:15:15;6.78;;;3.58;;
75220;SDS011;63802;53.232;6.570;2023-07-08T00:17:42;6.15;;;3.50;;
75220;SDS011;63802;53.232;6.570;2023-07-08T00:20:17;8.52;;;3.55;;
75220;SDS011;63802;53.232;6.570;2023-07-08T00:22:48;8.05;;;3.25;;
75220;SDS011;63802;53.232;6.570;2023-07-08T00:25:17;8.30;;;3.63;;
75220;SDS011;63802;53.232;6.570;2023-07-08T00:27:46;8.63;;;3.70;;
75220;SDS011;63802;53.232;6.570;2023-07-08T00:30:20;6.38;;;3.50;;
75220;SDS011;63802;53.232;6.570;2023-07-08T00:32:50;6.68;;;3.92;;
75220;SDS011;63802;53.232;6.570;2023-07-08T00:35:24;6.03;;;2.97;;
75220;SDS011;63802;53.232;6.570;2023-07-08T00:37:54;9.80;;;3.85;;
75220;SDS011;63802;53.232;6.570;2023-07-08T00:40:26;7.68;;;3.88;;
75220;SDS011;63802;53.232;6.570;2023-07-08T00:42:52;8.20;;;3.63;;
75220;SDS011;63802;53.232;6.570;2023-07-08T00:48:06;8.98;;;3.78;;
75220;SDS011;63802;53.232;6.570;2023-07-08T00:50:36;6.43;;;3.58;;
75220;SDS011;63802;53.232;6.570;2023-07-08T00:53:24;7.70;;;3.47;;
75220;SDS011;63802;53.232;6.570;2023-07-08T00:55:52;5.82;;;3.15;;
75220;SDS011;63802;53.232;6.570;2023-07-08T00:58:41;7.93;;;3.20;;
75220;SDS011;63802;53.232;6.570;2023-07-08T01:01:13;8.38;;;3.53;;
75220;SDS011;63802;53.232;6.570;2023-07-08T01:04:22;8.82;;;3.38;;
75220;SDS011;63802;53.232;6.570;2023-07-08T01:06:34;7.68;;;3.90;;
75220;SDS011;63802;53.232;6.570;2023-07-08T01:09:05;7.50;;;3.38;;
75220;SDS011;63802;53.232;6.570;2023-07-08T01:11:32;6.60;;;3.50;;
75220;SDS011;63802;53.232;6.570;2023-07-08T01:14:00;7.45;;;4.18;;
75220;SDS011;63802;53.232;6.570;2023-07-08T01:16:28;10.32;;;3.55;;
75220;SDS011;63802;53.232;6.570;2023-07-08T01:18:54;9.02;;;3.85;;
75220;SDS011;63802;53.232;6.570;2023-07-08T01:23:59;7.95;;;3.75;;
75220;SDS011;63802;53.232;6.570;2023-07-08T01:26:26;9.15;;;4.25;;
75220;SDS011;63802;53.232;6.570;2023-07-08T01:28:53;9.65;;;3.90;;
75220;SDS011;63802;53.232;6.570;2023-07-08T01:31:21;5.82;;;3.40;;
75220;SDS011;63802;53.232;6.570;2023-07-08T01:33:47;7.47;;;3.38;;
75220;SDS011;63802;53.232;6.570;2023-07-08T01:36:13;9.27;;;3.78;;
75220;SDS011;63802;53.232;6.570;2023-07-08T01:38:39;7.18;;;3.67;;
75220;SDS011;63802;53.232;6.570;2023-07-08T01:41:05;7.63;;;3.83;;
75220;SDS011;63802;53.232;6.570;2023-07-08T01:43:37;7.15;;;3.65;;
75220;SDS011;63802;53.232;6.570;2023-07-08T01:46:02;7.78;;;3.90;;
75220;SDS011;63802;53.232;6.570;2023-07-08T01:48:29;8.25;;;3.97;;
75220;SDS011;63802;53.232;6.570;2023-07-08T01:51:00;7.43;;;3.78;;
75220;SDS011;63802;53.232;6.570;2023-07-08T01:53:36;12.85;;;3.72;;
75220;SDS011;63802;53.232;6.570;2023-07-08T01:56:04;9.77;;;3.85;;
75220;SDS011;63802;53.232;6.570;2023-07-08T01:58:30;6.85;;;3.70;;
75220;SDS011;63802;53.232;6.570;2023-07-08T02:00:58;9.63;;;4.20;;
75220;SDS011;63802;53.232;6.570;2023-07-08T02:03:25;9.80;;;4.00;;
75220;SDS011;63802;53.232;6.570;2023-07-08T02:05:51;7.22;;;3.67;;
75220;SDS011;63802;53.232;6.570;2023-07-08T02:08:16;7.78;;;3.80;;
75220;SDS011;63802;53.232;6.570;2023-07-08T02:10:42;10.23;;;4.00;;
75220;SDS011;63802;53.232;6.570;2023-07-08T02:13:09;9.45;;;3.92;;
75220;SDS011;63802;53.232;6.570;2023-07-08T02:15:34;11.15;;;3.83;;
75220;SDS011;63802;53.232;6.570;2023-07-08T02:18:00;7.18;;;3.92;;
75220;SDS011;63802;53.232;6.570;2023-07-08T02:20:25;10.57;;;3.95;;
75220;SDS011;63802;53.232;6.570;2023-07-08T02:22:51;9.18;;;4.45;;
75220;SDS011;63802;53.232;6.570;2023-07-08T02:25:17;8.88;;;3.78;;
75220;SDS011;63802;53.232;6.570;2023-07-08T02:27:43;10.73;;;4.07;;
75220;SDS011;63802;53.232;6.570;2023-07-08T02:30:08;8.48;;;4.13;;
75220;SDS011;63802;53.232;6.570;2023-07-08T02:32:34;6.85;;;3.90;;
75220;SDS011;63802;53.232;6.570;2023-07-08T02:35:01;9.23;;;4.40;;
75220;SDS011;63802;53.232;6.570;2023-07-08T02:37:28;9.50;;;4.30;;
75220;SDS011;63802;53.232;6.570;2023-07-08T02:39:57;9.35;;;4.35;;
75220;SDS011;63802;53.232;6.570;2023-07-08T02:42:23;8.95;;;4.18;;
75220;SDS011;63802;53.232;6.570;2023-07-08T02:44:49;10.25;;;4.60;;
75220;SDS011;63802;53.232;6.570;2023-07-08T02:47:14;10.70;;;4.50;;
75220;SDS011;63802;53.232;6.570;2023-07-08T02:49:39;14.60;;;4.82;;
75220;SDS011;63802;53.232;6.570;2023-07-08T02:52:05;11.15;;;5.15;;
75220;SDS011;63802;53.232;6.570;2023-07-08T02:54:32;12.43;;;4.88;;
75220;SDS011;63802;53.232;6.570;2023-07-08T02:56:58;9.82;;;4.30;;
75220;SDS011;63802;53.232;6.570;2023-07-08T02:59:23;9.32;;;4.45;;
75220;SDS011;63802;53.232;6.570;2023-07-08T03:01:49;9.88;;;5.07;;
75220;SDS011;63802;53.232;6.570;2023-07-08T03:04:15;10.77;;;5.05;;
75220;SDS011;63802;53.232;6.570;2023-07-08T03:06:44;10.27;;;4.57;;
75220;SDS011;63802;53.232;6.570;2023-07-08T03:09:11;11.38;;;5.25;;
75220;SDS011;63802;53.232;6.570;2023-07-08T03:11:37;8.45;;;4.88;;
75220;SDS011;63802;53.232;6.570;2023-07-08T03:14:04;14.18;;;4.75;;
75220;SDS011;63802;53.232;6.570;2023-07-08T03:16:30;7.93;;;4.70;;
75220;SDS011;63802;53.232;6.570;2023-07-08T03:18:56;9.13;;;4.80;;
75220;SDS011;63802;53.232;6.570;2023-07-08T03:21:21;10.55;;;5.05;;
75220;SDS011;63802;53.232;6.570;2023-07-08T03:23:48;10.98;;;4.88;;
75220;SDS011;63802;53.232;6.570;2023-07-08T03:26:15;11.75;;;5.50;;
75220;SDS011;63802;53.232;6.570;2023-07-08T03:28:42;11.07;;;5.53;;
75220;SDS011;63802;53.232;6.570;2023-07-08T03:31:08;11.50;;;5.60;;
75220;SDS011;63802;53.232;6.570;2023-07-08T03:33:34;12.40;;;5.50;;
75220;SDS011;63802;53.232;6.570;2023-07-08T03:36:01;13.52;;;5.10;;
75220;SDS011;63802;53.232;6.570;2023-07-08T03:38:27;10.65;;;5.28;;
75220;SDS011;63802;53.232;6.570;2023-07-08T03:40:53;13.50;;;5.18;;
75220;SDS011;63802;53.232;6.570;2023-07-08T03:43:18;10.30;;;5.55;;
75220;SDS011;63802;53.232;6.570;2023-07-08T03:45:43;11.52;;;5.22;;
75220;SDS011;63802;53.232;6.570;2023-07-08T03:48:10;9.45;;;4.88;;
75220;SDS011;63802;53.232;6.570;2023-07-08T03:50:38;12.93;;;5.20;;
75220;SDS011;63802;53.232;6.570;2023-07-08T03:53:08;10.02;;;5.25;;
75220;SDS011;63802;53.232;6.570;2023-07-08T03:55:34;9.25;;;5.03;;
75220;SDS011;63802;53.232;6.570;2023-07-08T03:58:00;9.43;;;5.20;;
75220;SDS011;63802;53.232;6.570;2023-07-08T04:00:26;10.32;;;5.25;;
75220;SDS011;63802;53.232;6.570;2023-07-08T04:02:51;12.68;;;5.38;;
75220;SDS011;63802;53.232;6.570;2023-07-08T04:05:18;10.35;;;5.90;;
75220;SDS011;63802;53.232;6.570;2023-07-08T04:07:47;11.65;;;5.50;;
75220;SDS011;63802;53.232;6.570;2023-07-08T04:10:13;16.02;;;5.78;;
75220;SDS011;63802;53.232;6.570;2023-07-08T04:12:40;9.55;;;5.05;;
75220;SDS011;63802;53.232;6.570;2023-07-08T04:15:09;9.25;;;5.57;;
75220;SDS011;63802;53.232;6.570;2023-07-08T04:20:05;10.07;;;5.28;;
75220;SDS011;63802;53.232;6.570;2023-07-08T04:22:31;9.80;;;4.88;;
75220;SDS011;63802;53.232;6.570;2023-07-08T04:24:57;12.55;;;5.00;;
75220;SDS011;63802;53.232;6.570;2023-07-08T04:27:22;12.90;;;5.03;;
75220;SDS011;63802;53.232;6.570;2023-07-08T04:29:47;10.00;;;4.93;;
75220;SDS011;63802;53.232;6.570;2023-07-08T04:32:13;10.40;;;5.00;;
75220;SDS011;63802;53.232;6.570;2023-07-08T04:34:39;7.88;;;5.22;;
75220;SDS011;63802;53.232;6.570;2023-07-08T04:37:05;9.27;;;4.75;;
75220;SDS011;63802;53.232;6.570;2023-07-08T04:39:31;10.48;;;4.88;;
75220;SDS011;63802;53.232;6.570;2023-07-08T04:41:58;9.77;;;5.00;;
75220;SDS011;63802;53.232;6.570;2023-07-08T04:44:23;10.45;;;4.97;;
75220;SDS011;63802;53.232;6.570;2023-07-08T04:46:50;8.40;;;4.70;;
75220;SDS011;63802;53.232;6.570;2023-07-08T04:49:19;8.55;;;4.95;;
75220;SDS011;63802;53.232;6.570;2023-07-08T04:51:45;9.05;;;4.57;;
75220;SDS011;63802;53.232;6.570;2023-07-08T04:54:14;7.78;;;4.40;;
75220;SDS011;63802;53.232;6.570;2023-07-08T04:56:44;9.77;;;4.78;;
75220;SDS011;63802;53.232;6.570;2023-07-08T04:59:12;12.73;;;4.90;;
75220;SDS011;63802;53.232;6.570;2023-07-08T05:01:40;7.93;;;4.65;;
75220;SDS011;63802;53.232;6.570;2023-07-08T05:04:07;10.07;;;4.55;;
75220;SDS011;63802;53.232;6.570;2023-07-08T05:06:34;7.22;;;4.22;;
75220;SDS011;63802;53.232;6.570;2023-07-08T05:09:00;7.18;;;4.28;;
75220;SDS011;63802;53.232;6.570;2023-07-08T05:11:26;8.38;;;4.53;;
75220;SDS011;63802;53.232;6.570;2023-07-08T05:13:52;7.13;;;4.43;;
75220;SDS011;63802;53.232;6.570;2023-07-08T05:16:17;9.93;;;4.75;;
75220;SDS011;63802;53.232;6.570;2023-07-08T05:18:43;10.68;;;4.57;;
75220;SDS011;63802;53.232;6.570;2023-07-08T05:21:09;8.25;;;4.35;;
75220;SDS011;63802;53.232;6.570;2023-07-08T05:23:35;8.15;;;3.92;;
75220;SDS011;63802;53.232;6.570;2023-07-08T05:26:01;8.32;;;4.72;;
75220;SDS011;63802;53.232;6.570;2023-07-08T05:28:29;9.95;;;4.30;;
75220;SDS011;63802;53.232;6.570;2023-07-08T05:30:55;8.35;;;4.70;;
75220;SDS011;63802;53.232;6.570;2023-07-08T05:33:23;11.65;;;4.63;;
75220;SDS011;63802;53.232;6.570;2023-07-08T05:35:50;6.22;;;4.00;;
75220;SDS011;63802;53.232;6.570;2023-07-08T05:38:17;9.05;;;4.32;;
75220;SDS011;63802;53.232;6.570;2023-07-08T05:40:43;6.80;;;4.05;;
75220;SDS011;63802;53.232;6.570;2023-07-08T05:43:08;7.57;;;4.15;;
75220;SDS011;63802;53.232;6.570;2023-07-08T05:45:34;7.97;;;4.38;;
75220;SDS011;63802;53.232;6.570;2023-07-08T05:48:01;7.63;;;4.20;;
75220;SDS011;63802;53.232;6.570;2023-07-08T05:50:27;10.32;;;4.18;;
75220;SDS011;63802;53.232;6.570;2023-07-08T05:52:52;7.63;;;4.63;;
75220;SDS011;63802;53.232;6.570;2023-07-08T05:55:18;7.72;;;4.00;;
75220;SDS011;63802;53.232;6.570;2023-07-08T05:57:43;6.00;;;4.13;;
75220;SDS011;63802;53.232;6.570;2023-07-08T06:00:09;8.43;;;4.10;;
75220;SDS011;63802;53.232;6.570;2023-07-08T06:02:35;7.30;;;4.03;;
75220;SDS011;63802;53.232;6.570;2023-07-08T06:05:01;11.15;;;4.57;;
75220;SDS011;63802;53.232;6.570;2023-07-08T06:07:27;8.13;;;4.20;;
75220;SDS011;63802;53.232;6.570;2023-07-08T06:09:52;7.75;;;4.28;;
75220;SDS011;63802;53.232;6.570;2023-07-08T06:12:20;6.45;;;4.15;;
75220;SDS011;63802;53.232;6.570;2023-07-08T06:14:47;8.00;;;4.10;;
75220;SDS011;63802;53.232;6.570;2023-07-08T06:17:12;7.10;;;3.80;;
75220;SDS011;63802;53.232;6.570;2023-07-08T06:19:38;6.45;;;3.90;;
75220;SDS011;63802;53.232;6.570;2023-07-08T06:22:03;7.90;;;4.13;;
75220;SDS011;63802;53.232;6.570;2023-07-08T06:24:29;11.20;;;4.10;;
75220;SDS011;63802;53.232;6.570;2023-07-08T06:26:55;10.25;;;3.92;;
75220;SDS011;63802;53.232;6.570;2023-07-08T06:29:20;7.25;;;3.92;;
75220;SDS011;63802;53.232;6.570;2023-07-08T06:31:46;7.97;;;4.00;;
75220;SDS011;63802;53.232;6.570;2023-07-08T06:34:11;7.75;;;3.83;;
75220;SDS011;63802;53.232;6.570;2023-07-08T06:36:36;6.65;;;3.60;;
75220;SDS011;63802;53.232;6.570;2023-07-08T06:39:02;6.63;;;3.70;;
75220;SDS011;63802;53.232;6.570;2023-07-08T06:41:28;7.97;;;3.80;;
75220;SDS011;63802;53.232;6.570;2023-07-08T06:43:54;6.55;;;3.50;;
75220;SDS011;63802;53.232;6.570;2023-07-08T06:46:19;6.50;;;3.53;;
75220;SDS011;63802;53.232;6.570;2023-07-08T06:48:45;9.23;;;3.65;;
75220;SDS011;63802;53.232;6.570;2023-07-08T06:51:11;7.57;;;3.38;;
75220;SDS011;63802;53.232;6.570;2023-07-08T06:53:36;5.75;;;3.50;;
75220;SDS011;63802;53.232;6.570;2023-07-08T06:56:01;6.28;;;3.45;;
75220;SDS011;63802;53.232;6.570;2023-07-08T06:58:27;8.18;;;3.67;;
75220;SDS011;63802;53.232;6.570;2023-07-08T07:00:53;8.15;;;3.50;;
75220;SDS011;63802;53.232;6.570;2023-07-08T07:03:18;7.50;;;3.72;;
75220;SDS011;63802;53.232;6.570;2023-07-08T07:05:44;6.55;;;3.40;;
75220;SDS011;63802;53.232;6.570;2023-07-08T07:08:10;7.10;;;3.65;;
75220;SDS011;63802;53.232;6.570;2023-07-08T07:10:35;6.32;;;3.53;;
75220;SDS011;63802;53.232;6.570;2023-07-08T07:13:01;6.22;;;3.20;;
75220;SDS011;63802;53.232;6.570;2023-07-08T07:15:27;6.82;;;4.25;;
75220;SDS011;63802;53.232;6.570;2023-07-08T07:17:52;7.30;;;3.75;;
75220;SDS011;63802;53.232;6.570;2023-07-08T07:20:18;5.72;;;3.08;;
75220;SDS011;63802;53.232;6.570;2023-07-08T07:22:43;8.23;;;3.20;;
75220;SDS011;63802;53.232;6.570;2023-07-08T07:25:08;10.15;;;3.50;;
75220;SDS011;63802;53.232;6.570;2023-07-08T07:27:34;6.28;;;3.30;;
75220;SDS011;63802;53.232;6.570;2023-07-08T07:29:59;6.00;;;3.42;;
75220;SDS011;63802;53.232;6.570;2023-07-08T07:32:25;5.97;;;3.42;;
75220;SDS011;63802;53.232;6.570;2023-07-08T07:34:54;7.05;;;3.60;;
75220;SDS011;63802;53.232;6.570;2023-07-08T07:37:20;7.95;;;3.05;;
75220;SDS011;63802;53.232;6.570;2023-07-08T07:39:47;7.38;;;3.40;;
75220;SDS011;63802;53.232;6.570;2023-07-08T07:42:14;6.88;;;3.17;;
75220;SDS011;63802;53.232;6.570;2023-07-08T07:44:40;5.13;;;3.03;;
75220;SDS011;63802;53.232;6.570;2023-07-08T07:47:07;5.70;;;2.97;;
75220;SDS011;63802;53.232;6.570;2023-07-08T07:49:34;7.22;;;3.30;;
75220;SDS011;63802;53.232;6.570;2023-07-08T07:51:59;7.20;;;3.63;;
75220;SDS011;63802;53.232;6.570;2023-07-08T07:54:25;7.70;;;3.40;;
75220;SDS011;63802;53.232;6.570;2023-07-08T07:56:51;5.25;;;3.28;;
75220;SDS011;63802;53.232;6.570;2023-07-08T07:59:17;5.13;;;3.40;;
75220;SDS011;63802;53.232;6.570;2023-07-08T08:01:42;5.80;;;3.65;;
75220;SDS011;63802;53.232;6.570;2023-07-08T08:04:09;7.10;;;3.50;;
75220;SDS011;63802;53.232;6.570;2023-07-08T08:06:35;6.53;;;3.25;;
75220;SDS011;63802;53.232;6.570;2023-07-08T08:09:01;6.30;;;3.30;;
75220;SDS011;63802;53.232;6.570;2023-07-08T08:11:28;5.72;;;3.40;;
75220;SDS011;63802;53.232;6.570;2023-07-08T08:13:53;5.72;;;3.33;;
75220;SDS011;63802;53.232;6.570;2023-07-08T08:16:19;9.43;;;3.65;;
75220;SDS011;63802;53.232;6.570;2023-07-08T08:18:46;7.45;;;3.65;;
75220;SDS011;63802;53.232;6.570;2023-07-08T08:21:11;5.75;;;3.42;;
75220;SDS011;63802;53.232;6.570;2023-07-08T08:23:37;7.22;;;3.40;;
75220;SDS011;63802;53.232;6.570;2023-07-08T08:26:02;7.57;;;3.42;;
75220;SDS011;63802;53.232;6.570;2023-07-08T08:28:28;5.18;;;3.13;;
75220;SDS011;63802;53.232;6.570;2023-07-08T08:30:53;6.72;;;3.38;;
75220;SDS011;63802;53.232;6.570;2023-07-08T08:33:19;8.88;;;3.60;;
75220;SDS011;63802;53.232;6.570;2023-07-08T08:35:45;5.80;;;3.53;;
75220;SDS011;63802;53.232;6.570;2023-07-08T08:38:11;7.13;;;3.28;;
75220;SDS011;63802;53.232;6.570;2023-07-08T08:40:36;6.93;;;3.83;;
75220;SDS011;63802;53.232;6.570;2023-07-08T08:48:32;6.55;;;3.63;;
75220;SDS011;63802;53.232;6.570;2023-07-08T08:51:07;6.70;;;3.40;;
75220;SDS011;63802;53.232;6.570;2023-07-08T08:53:38;7.22;;;2.97;;
75220;SDS011;63802;53.232;6.570;2023-07-08T08:56:15;5.40;;;3.08;;
75220;SDS011;63802;53.232;6.570;2023-07-08T09:01:11;4.22;;;3.10;;
75220;SDS011;63802;53.232;6.570;2023-07-08T09:03:53;5.30;;;2.90;;
75220;SDS011;63802;53.232;6.570;2023-07-08T09:06:24;6.05;;;3.10;;
75220;SDS011;63802;53.232;6.570;2023-07-08T09:08:51;5.30;;;3.10;;
75220;SDS011;63802;53.232;6.570;2023-07-08T09:13:59;5.18;;;3.28;;
75220;SDS011;63802;53.232;6.570;2023-07-08T09:19:12;5.60;;;3.22;;
75220;SDS011;63802;53.232;6.570;2023-07-08T09:24:22;7.32;;;2.97;;
75220;SDS011;63802;53.232;6.570;2023-07-08T09:27:05;5.20;;;3.00;;
75220;SDS011;63802;53.232;6.570;2023-07-08T09:29:31;4.78;;;3.10;;
75220;SDS011;63802;53.232;6.570;2023-07-08T09:31:58;5.03;;;2.78;;
75220;SDS011;63802;53.232;6.570;2023-07-08T09:34:36;6.50;;;3.42;;
75220;SDS011;63802;53.232;6.570;2023-07-08T09:37:18;6.28;;;3.20;;
75220;SDS011;63802;53.232;6.570;2023-07-08T09:39:47;4.43;;;2.90;;
75220;SDS011;63802;53.232;6.570;2023-07-08T09:42:12;5.18;;;3.10;;
75220;SDS011;63802;53.232;6.570;2023-07-08T09:44:40;4.88;;;2.85;;
75220;SDS011;63802;53.232;6.570;2023-07-08T09:47:17;5.25;;;2.85;;
75220;SDS011;63802;53.232;6.570;2023-07-08T09:49:58;4.80;;;3.33;;
75220;SDS011;63802;53.232;6.570;2023-07-08T09:52:24;7.32;;;3.20;;
75220;SDS011;63802;53.232;6.570;2023-07-08T09:54:49;6.10;;;3.20;;
75220;SDS011;63802;53.232;6.570;2023-07-08T10:00:01;5.07;;;3.25;;
75220;SDS011;63802;53.232;6.570;2023-07-08T10:02:41;4.50;;;3.10;;
75220;SDS011;63802;53.232;6.570;2023-07-08T10:05:16;5.37;;;3.40;;
75220;SDS011;63802;53.232;6.570;2023-07-08T10:07:44;4.80;;;3.20;;
75220;SDS011;63802;53.232;6.570;2023-07-08T10:10:16;5.25;;;3.67;;
75220;SDS011;63802;53.232;6.570;2023-07-08T10:13:06;7.70;;;3.28;;
75220;SDS011;63802;53.232;6.570;2023-07-08T10:15:38;5.57;;;3.30;;
75220;SDS011;63802;53.232;6.570;2023-07-08T10:18:13;7.55;;;3.10;;
75220;SDS011;63802;53.232;6.570;2023-07-08T10:21:02;4.75;;;3.00;;
75220;SDS011;63802;53.232;6.570;2023-07-08T10:26:28;6.35;;;3.05;;
75220;SDS011;63802;53.232;6.570;2023-07-08T10:32:16;5.72;;;3.40;;
75220;SDS011;63802;53.232;6.570;2023-07-08T10:34:54;4.68;;;3.33;;
75220;SDS011;63802;53.232;6.570;2023-07-08T10:37:43;8.02;;;3.55;;
75220;SDS011;63802;53.232;6.570;2023-07-08T10:40:27;7.38;;;3.40;;
75220;SDS011;63802;53.232;6.570;2023-07-08T10:45:57;4.85;;;3.10;;
75220;SDS011;63802;53.232;6.570;2023-07-08T10:51:47;5.68;;;3.30;;
75220;SDS011;63802;53.232;6.570;2023-07-08T10:57:45;6.47;;;3.00;;
75220;SDS011;63802;53.232;6.570;2023-07-08T11:06:14;6.57;;;3.33;;
75220;SDS011;63802;53.232;6.570;2023-07-08T11:08:45;5.35;;;3.47;;
75220;SDS011;63802;53.232;6.570;2023-07-08T11:13:58;7.32;;;3.20;;
75220;SDS011;63802;53.232;6.570;2023-07-08T11:16:37;6.55;;;3.33;;
75220;SDS011;63802;53.232;6.570;2023-07-08T11:21:45;5.50;;;3.60;;
75220;SDS011;63802;53.232;6.570;2023-07-08T11:24:58;7.03;;;3.40;;
75220;SDS011;63802;53.232;6.570;2023-07-08T11:27:04;7.80;;;3.40;;
75220;SDS011;63802;53.232;6.570;2023-07-08T11:30:12;3.95;;;3.17;;
75220;SDS011;63802;53.232;6.570;2023-07-08T11:32:36;6.05;;;3.40;;
75220;SDS011;63802;53.232;6.570;2023-07-08T11:35:05;4.90;;;2.90;;
75220;SDS011;63802;53.232;6.570;2023-07-08T11:37:38;5.95;;;3.22;;
75220;SDS011;63802;53.232;6.570;2023-07-08T11:40:07;5.55;;;3.45;;
75220;SDS011;63802;53.232;6.570;2023-07-08T11:45:23;5.40;;;3.33;;
75220;SDS011;63802;53.232;6.570;2023-07-08T11:47:55;5.45;;;3.42;;
75220;SDS011;63802;53.232;6.570;2023-07-08T11:50:48;6.25;;;3.15;;
75220;SDS011;63802;53.232;6.570;2023-07-08T11:55:58;8.15;;;3.22;;
75220;SDS011;63802;53.232;6.570;2023-07-08T11:58:26;5.15;;;3.30;;
75220;SDS011;63802;53.232;6.570;2023-07-08T12:01:03;5.90;;;3.55;;
75220;SDS011;63802;53.232;6.570;2023-07-08T12:03:54;5.03;;;3.33;;
75220;SDS011;63802;53.232;6.570;2023-07-08T12:08:57;6.70;;;3.38;;
75220;SDS011;63802;53.232;6.570;2023-07-08T12:11:25;7.72;;;3.30;;
75220;SDS011;63802;53.232;6.570;2023-07-08T12:13:56;4.35;;;3.20;;
75220;SDS011;63802;53.232;6.570;2023-07-08T12:16:24;7.55;;;3.30;;
75220;SDS011;63802;53.232;6.570;2023-07-08T12:18:50;5.03;;;3.25;;
75220;SDS011;63802;53.232;6.570;2023-07-08T12:21:17;8.77;;;3.67;;
75220;SDS011;63802;53.232;6.570;2023-07-08T12:23:47;7.90;;;3.65;;
75220;SDS011;63802;53.232;6.570;2023-07-08T12:26:14;5.07;;;3.42;;
75220;SDS011;63802;53.232;6.570;2023-07-08T12:28:40;5.97;;;3.78;;
75220;SDS011;63802;53.232;6.570;2023-07-08T12:31:13;5.18;;;3.70;;
75220;SDS011;63802;53.232;6.570;2023-07-08T12:33:43;7.00;;;3.45;;
75220;SDS011;63802;53.232;6.570;2023-07-08T12:36:10;6.70;;;3.72;;
75220;SDS011;63802;53.232;6.570;2023-07-08T12:38:40;5.80;;;3.58;;
75220;SDS011;63802;53.232;6.570;2023-07-08T12:41:20;5.60;;;3.33;;
75220;SDS011;63802;53.232;6.570;2023-07-08T12:43:48;6.00;;;3.38;;
75220;SDS011;63802;53.232;6.570;2023-07-08T12:46:15;6.38;;;3.33;;
75220;SDS011;63802;53.232;6.570;2023-07-08T12:48:43;7.43;;;3.65;;
75220;SDS011;63802;53.232;6.570;2023-07-08T12:51:16;6.25;;;3.58;;
75220;SDS011;63802;53.232;6.570;2023-07-08T12:53:45;9.45;;;3.58;;
75220;SDS011;63802;53.232;6.570;2023-07-08T12:56:12;7.35;;;3.38;;
75220;SDS011;63802;53.232;6.570;2023-07-08T12:58:39;5.70;;;3.58;;
75220;SDS011;63802;53.232;6.570;2023-07-08T13:01:06;8.02;;;3.55;;
75220;SDS011;63802;53.232;6.570;2023-07-08T13:03:37;4.53;;;3.10;;
75220;SDS011;63802;53.232;6.570;2023-07-08T13:06:07;5.25;;;3.50;;
75220;SDS011;63802;53.232;6.570;2023-07-08T13:08:35;8.05;;;3.85;;
75220;SDS011;63802;53.232;6.570;2023-07-08T13:11:03;5.75;;;3.63;;
75220;SDS011;63802;53.232;6.570;2023-07-08T13:13:34;5.82;;;4.03;;
75220;SDS011;63802;53.232;6.570;2023-07-08T13:16:03;6.78;;;3.80;;
75220;SDS011;63802;53.232;6.570;2023-07-08T13:18:37;6.38;;;3.80;;
75220;SDS011;63802;53.232;6.570;2023-07-08T13:21:06;5.47;;;3.58;;
75220;SDS011;63802;53.232;6.570;2023-07-08T13:23:36;6.57;;;3.70;;
75220;SDS011;63802;53.232;6.570;2023-07-08T13:26:11;5.63;;;3.30;;
75220;SDS011;63802;53.232;6.570;2023-07-08T13:28:45;6.82;;;3.75;;
75220;SDS011;63802;53.232;6.570;2023-07-08T13:33:45;8.88;;;4.05;;
75220;SDS011;63802;53.232;6.570;2023-07-08T13:36:13;5.00;;;3.78;;
75220;SDS011;63802;53.232;6.570;2023-07-08T13:38:42;7.05;;;3.70;;
75220;SDS011;63802;53.232;6.570;2023-07-08T13:41:09;6.32;;;4.15;;
75220;SDS011;63802;53.232;6.570;2023-07-08T13:43:36;6.43;;;4.13;;
75220;SDS011;63802;53.232;6.570;2023-07-08T13:46:04;7.78;;;4.07;;
75220;SDS011;63802;53.232;6.570;2023-07-08T13:51:03;6.72;;;4.25;;
75220;SDS011;63802;53.232;6.570;2023-07-08T13:53:50;12.05;;;5.45;;
75220;SDS011;63802;53.232;6.570;2023-07-08T13:58:47;18.05;;;8.30;;
75220;SDS011;63802;53.232;6.570;2023-07-08T14:01:16;14.40;;;9.00;;
75220;SDS011;63802;53.232;6.570;2023-07-08T14:03:47;11.57;;;8.30;;
75220;SDS011;63802;53.232;6.570;2023-07-08T14:06:16;13.10;;;8.13;;
75220;SDS011;63802;53.232;6.570;2023-07-08T14:08:43;9.13;;;7.68;;
75220;SDS011;63802;53.232;6.570;2023-07-08T14:11:09;15.70;;;8.95;;
75220;SDS011;63802;53.232;6.570;2023-07-08T14:13:35;13.15;;;8.55;;
75220;SDS011;63802;53.232;6.570;2023-07-08T14:16:01;12.30;;;7.10;;
75220;SDS011;63802;53.232;6.570;2023-07-08T14:18:30;9.00;;;5.97;;
75220;SDS011;63802;53.232;6.570;2023-07-08T14:20:55;8.05;;;5.30;;
75220;SDS011;63802;53.232;6.570;2023-07-08T14:23:21;8.98;;;5.35;;
75220;SDS011;63802;53.232;6.570;2023-07-08T14:25:46;8.35;;;5.57;;
75220;SDS011;63802;53.232;6.570;2023-07-08T14:28:12;11.13;;;5.25;;
75220;SDS011;63802;53.232;6.570;2023-07-08T14:30:42;9.48;;;5.03;;
75220;SDS011;63802;53.232;6.570;2023-07-08T14:33:10;7.97;;;4.95;;
75220;SDS011;63802;53.232;6.570;2023-07-08T14:35:37;8.55;;;4.93;;
75220;SDS011;63802;53.232;6.570;2023-07-08T14:38:02;7.47;;;4.38;;
75220;SDS011;63802;53.232;6.570;2023-07-08T14:40:34;13.52;;;4.90;;
75220;SDS011;63802;53.232;6.570;2023-07-08T14:43:02;10.52;;;4.85;;
75220;SDS011;63802;53.232;6.570;2023-07-08T14:45:50;8.02;;;4.38;;
75220;SDS011;63802;53.232;6.570;2023-07-08T14:48:18;7.65;;;4.78;;
75220;SDS011;63802;53.232;6.570;2023-07-08T14:50:43;7.85;;;4.28;;
75220;SDS011;63802;53.232;6.570;2023-07-08T14:53:09;11.27;;;4.70;;
75220;SDS011;63802;53.232;6.570;2023-07-08T14:55:35;8.05;;;4.85;;
75220;SDS011;63802;53.232;6.570;2023-07-08T14:58:01;8.55;;;4.63;;
75220;SDS011;63802;53.232;6.570;2023-07-08T15:00:28;8.98;;;4.70;;
75220;SDS011;63802;53.232;6.570;2023-07-08T15:02:54;7.03;;;4.68;;
75220;SDS011;63802;53.232;6.570;2023-07-08T15:05:26;9.38;;;4.68;;
75220;SDS011;63802;53.232;6.570;2023-07-08T15:07:56;9.52;;;4.35;;
75220;SDS011;63802;53.232;6.570;2023-07-08T15:10:27;9.85;;;4.35;;
75220;SDS011;63802;53.232;6.570;2023-07-08T15:12:54;9.15;;;4.82;;
75220;SDS011;63802;53.232;6.570;2023-07-08T15:15:22;8.65;;;4.60;;
75220;SDS011;63802;53.232;6.570;2023-07-08T15:17:56;8.45;;;4.55;;
75220;SDS011;63802;53.232;6.570;2023-07-08T15:20:23;9.90;;;4.20;;
75220;SDS011;63802;53.232;6.570;2023-07-08T15:22:49;9.05;;;4.72;;
75220;SDS011;63802;53.232;6.570;2023-07-08T15:25:15;10.38;;;5.10;;
75220;SDS011;63802;53.232;6.570;2023-07-08T15:27:42;10.60;;;4.90;;
75220;SDS011;63802;53.232;6.570;2023-07-08T15:30:18;13.82;;;4.95;;
75220;SDS011;63802;53.232;6.570;2023-07-08T15:32:46;8.13;;;4.43;;
75220;SDS011;63802;53.232;6.570;2023-07-08T15:35:12;9.93;;;5.07;;
75220;SDS011;63802;53.232;6.570;2023-07-08T15:37:41;7.97;;;4.43;;
75220;SDS011;63802;53.232;6.570;2023-07-08T15:40:13;8.40;;;4.63;;
75220;SDS011;63802;53.232;6.570;2023-07-08T15:42:41;11.98;;;5.07;;
75220;SDS011;63802;53.232;6.570;2023-07-08T15:48:00;10.02;;;5.20;;
75220;SDS011;63802;53.232;6.570;2023-07-08T15:50:26;9.15;;;5.10;;
75220;SDS011;63802;53.232;6.570;2023-07-08T15:52:52;8.80;;;4.93;;
75220;SDS011;63802;53.232;6.570;2023-07-08T15:55:23;9.40;;;5.25;;
75220;SDS011;63802;53.232;6.570;2023-07-08T15:57:54;8.98;;;5.10;;
75220;SDS011;63802;53.232;6.570;2023-07-08T16:00:23;8.95;;;5.00;;
75220;SDS011;63802;53.232;6.570;2023-07-08T16:02:52;10.00;;;4.85;;
75220;SDS011;63802;53.232;6.570;2023-07-08T16:05:21;9.93;;;4.85;;
75220;SDS011;63802;53.232;6.570;2023-07-08T16:07:48;8.55;;;4.88;;
75220;SDS011;63802;53.232;6.570;2023-07-08T16:10:18;9.48;;;5.38;;